Leyla Kalkavan — V7JG9 — position and weather

sailwx.info

Track history (hours):
 
Tides and Currents Weather Stations Pressure Air Temp Water Temp Dewpoint Dewpoint Depression Visibility Wind Speed Wind Dir Waves Ship Positions

Leyla Kalkavan

Last reported at 2018-Jun-21 21:11 UTC. Time now 2018-Jun-22 00:01 UTC.
Position N 44°28' E 037°22'.

Type: Tanker. MMSI: 538007390.

Date/timePositionNaut miles runAvg speedWind from/ knotsBaromVisibWave heightAir tempDewpointWater temp
2018-Jun-21 21:11N 44°28' E 037°22'312.7
2018-Jun-21 20:58N 44°29' E 037°26'812.9
2018-Jun-21 20:23N 44°31' E 037°36'512.4
2018-Jun-21 20:00N 44°34' E 037°41'3 5.1
2018-Jun-21 19:30N 44°36' E 037°43'0 0.2
2018-Jun-21 19:00N 44°36' E 037°43'0 0.2
2018-Jun-21 18:30N 44°36' E 037°43'0 0.4
2018-Jun-21 18:00N 44°36' E 037°43'1 1.5
2018-Jun-21 17:30N 44°35' E 037°43'0 0.4
2018-Jun-21 17:00N 44°35' E 037°43'1 1.9
2018-Jun-21 16:30N 44°35' E 037°41'2 4.1
2018-Jun-21 16:00N 44°36' E 037°39'1 2.7
2018-Jun-21 15:30N 44°37' E 037°38'1 1.5
2018-Jun-21 15:00N 44°38' E 037°38'0 0.0
2018-Jun-20 22:13N 44°38' E 037°38'0 0.4
2018-Jun-20 22:00N 44°38' E 037°38'1 2.3
2018-Jun-20 21:30N 44°37' E 037°37'1 2.1
2018-Jun-20 21:00N 44°36' E 037°38'1 2.0
2018-Jun-20 20:30N 44°35' E 037°39'4 9.1
2018-Jun-20 20:00N 44°35' E 037°45'5 9.5
2018-Jun-20 19:30N 44°35' E 037°52'1 1.3
2018-Jun-20 18:58N 44°35' E 037°53'0 0.1
2018-Jun-20 18:28N 44°35' E 037°53'0 0.2
2018-Jun-20 17:58N 44°35' E 037°53'0 0.0
2018-Jun-20 17:28N 44°35' E 037°53'0 0.0
2018-Jun-20 16:58N 44°35' E 037°53'0 0.0
2018-Jun-20 16:25N 44°35' E 037°53'0 0.0
2018-Jun-20 15:58N 44°35' E 037°53'0 0.0
2018-Jun-20 15:28N 44°35' E 037°53'0 0.0
2018-Jun-20 14:58N 44°35' E 037°53'0 0.2
2018-Jun-20 14:28N 44°36' E 037°53'0 0.2
2018-Jun-20 13:58N 44°35' E 037°53'0 0.1
2018-Jun-20 13:28N 44°35' E 037°53'0 0.1
2018-Jun-20 12:58N 44°35' E 037°53'0 0.0
2018-Jun-20 12:28N 44°35' E 037°53'0 0.0
2018-Jun-20 11:58N 44°35' E 037°53'0 0.0
2018-Jun-20 11:25N 44°35' E 037°53'0 0.0
2018-Jun-20 10:58N 44°35' E 037°53'0 0.0
2018-Jun-20 10:28N 44°35' E 037°53'0 0.1
2018-Jun-20 09:58N 44°36' E 037°53'0 0.1
2018-Jun-20 09:25N 44°36' E 037°53'0 0.0
2018-Jun-20 08:58N 44°36' E 037°53'0 0.0
2018-Jun-20 08:28N 44°36' E 037°53'0 0.0
2018-Jun-20 07:58N 44°36' E 037°53'0 0.0
2018-Jun-20 07:28N 44°36' E 037°53'0 0.0
2018-Jun-20 06:58N 44°36' E 037°53'0 0.1
2018-Jun-20 06:28N 44°36' E 037°53'0 0.0
2018-Jun-20 05:58N 44°35' E 037°53'0 0.0
2018-Jun-20 05:28N 44°35' E 037°53'0 0.0
2018-Jun-20 04:49N 44°35' E 037°53'0 0.1
2018-Jun-20 04:28N 44°35' E 037°53'0 0.0
2018-Jun-20 03:58N 44°35' E 037°53'0 0.0
2018-Jun-20 03:28N 44°35' E 037°53'0 0.0
2018-Jun-20 02:58N 44°35' E 037°53'0 0.0
2018-Jun-20 02:28N 44°35' E 037°53'0 0.2
2018-Jun-20 01:58N 44°35' E 037°53'0 0.1
2018-Jun-20 01:28N 44°35' E 037°53'0 0.0
2018-Jun-20 00:58N 44°35' E 037°53'0 0.0
2018-Jun-20 00:28N 44°35' E 037°53'0 0.1
2018-Jun-19 23:58N 44°35' E 037°53'0 0.1
2018-Jun-19 23:28N 44°35' E 037°53'0 0.0
2018-Jun-19 22:58N 44°35' E 037°53'0 0.0
2018-Jun-19 22:28N 44°35' E 037°53'0 0.0
2018-Jun-19 21:58N 44°35' E 037°53'0 0.0
2018-Jun-19 21:28N 44°35' E 037°53'0 0.1
2018-Jun-19 20:58N 44°35' E 037°53'0 0.1
2018-Jun-19 20:28N 44°35' E 037°53'0 0.0
2018-Jun-19 19:58N 44°35' E 037°53'0 0.1
2018-Jun-19 19:28N 44°35' E 037°53'0 0.1
2018-Jun-19 18:58N 44°35' E 037°53'0 0.0
2018-Jun-19 18:28N 44°35' E 037°53'0 0.0
2018-Jun-19 17:58N 44°35' E 037°53'0 0.1
2018-Jun-19 17:28N 44°35' E 037°53'0 0.0
2018-Jun-19 16:55N 44°35' E 037°53'0 0.1
2018-Jun-19 16:25N 44°35' E 037°53'0 0.0
2018-Jun-19 15:58N 44°35' E 037°53'0 0.1
2018-Jun-19 15:28N 44°35' E 037°53'0 0.1
2018-Jun-19 14:58N 44°35' E 037°53'0 0.1
2018-Jun-19 14:28N 44°35' E 037°53'0 0.1
2018-Jun-19 13:58N 44°36' E 037°53'0 0.0
2018-Jun-19 13:28N 44°36' E 037°53'0 0.0
2018-Jun-19 12:58N 44°36' E 037°53'0 0.0
2018-Jun-19 12:28N 44°36' E 037°53'0 0.0
2018-Jun-19 11:58N 44°36' E 037°53'0 0.0
2018-Jun-19 11:28N 44°36' E 037°53'0 0.0
2018-Jun-19 10:58N 44°36' E 037°53'0 0.0
2018-Jun-19 10:28N 44°36' E 037°53'0 0.0
2018-Jun-19 09:58N 44°36' E 037°53'0 0.0
2018-Jun-19 09:28N 44°36' E 037°53'0 0.0
2018-Jun-19 08:58N 44°36' E 037°53'0 0.0
2018-Jun-19 08:28N 44°36' E 037°53'0 0.0
2018-Jun-19 07:58N 44°36' E 037°53'0 0.1
2018-Jun-19 07:28N 44°36' E 037°53'0 0.1
2018-Jun-19 06:58N 44°35' E 037°53'0 0.1
2018-Jun-19 06:28N 44°35' E 037°53'0 0.0
2018-Jun-19 05:58N 44°35' E 037°53'0 0.0
2018-Jun-19 05:31N 44°35' E 037°53'0 0.1
2018-Jun-19 04:58N 44°35' E 037°53'0 0.1
2018-Jun-19 04:28N 44°35' E 037°53'0 0.0
2018-Jun-19 03:58N 44°35' E 037°53'0 0.0
2018-Jun-19 03:28N 44°35' E 037°53'0 0.0
2018-Jun-19 02:58N 44°35' E 037°53'0 0.0
2018-Jun-19 02:28N 44°35' E 037°53'0 0.0
2018-Jun-19 02:01N 44°35' E 037°53'0 0.0
2018-Jun-19 01:28N 44°35' E 037°53'0 0.0
2018-Jun-19 00:57N 44°35' E 037°53'0 0.1
2018-Jun-19 00:28N 44°35' E 037°53'0 0.0
2018-Jun-18 23:58N 44°35' E 037°53'0 0.1
2018-Jun-18 23:31N 44°35' E 037°53'0 0.0
2018-Jun-18 23:01N 44°35' E 037°53'0 0.1
2018-Jun-18 22:28N 44°35' E 037°53'0 0.1
2018-Jun-18 21:58N 44°35' E 037°53'0 0.0
2018-Jun-18 21:28N 44°35' E 037°53'0 0.0
2018-Jun-18 20:58N 44°35' E 037°53'0 0.0
2018-Jun-18 20:27N 44°35' E 037°53'0 0.1
2018-Jun-18 20:01N 44°35' E 037°53'0 0.0
2018-Jun-18 19:31N 44°35' E 037°53'0 0.0
2018-Jun-18 18:58N 44°35' E 037°53'0 0.0
2018-Jun-18 18:30N 44°35' E 037°53'0 0.1
2018-Jun-18 18:01N 44°35' E 037°53'0 0.0
2018-Jun-18 17:30N 44°35' E 037°53'0 0.0
2018-Jun-18 17:01N 44°35' E 037°53'0 0.0
2018-Jun-18 16:31N 44°35' E 037°53'0 0.0
2018-Jun-18 15:58N 44°35' E 037°53'0 0.0
2018-Jun-18 15:30N 44°35' E 037°53'0 0.0
2018-Jun-18 14:58N 44°35' E 037°53'0 0.0
2018-Jun-18 14:30N 44°35' E 037°53'0 0.0
2018-Jun-18 14:01N 44°35' E 037°53'0 0.1
2018-Jun-18 13:27N 44°35' E 037°53'0 0.0
2018-Jun-18 13:01N 44°35' E 037°53'0 0.2
2018-Jun-18 12:31N 44°35' E 037°53'0 0.3
2018-Jun-18 12:01N 44°35' E 037°53'0 0.2
2018-Jun-18 11:25N 44°35' E 037°53'0 0.0
2018-Jun-18 10:57N 44°35' E 037°53'0 0.0
2018-Jun-18 10:31N 44°35' E 037°53'0 0.0
2018-Jun-18 09:57N 44°35' E 037°53'0 0.0
2018-Jun-18 09:28N 44°35' E 037°53'0 0.0
2018-Jun-18 09:01N 44°35' E 037°53'0 0.0
2018-Jun-18 08:30N 44°35' E 037°53'0 0.1
2018-Jun-18 08:00N 44°35' E 037°53'0 0.2
2018-Jun-18 07:30N 44°36' E 037°53'0 0.1
2018-Jun-18 07:00N 44°36' E 037°53'0 0.1
2018-Jun-18 06:30N 44°35' E 037°53'0 0.1
2018-Jun-18 06:01N 44°35' E 037°53'0 0.1
2018-Jun-18 05:30N 44°35' E 037°53'0 0.0
2018-Jun-18 05:00N 44°35' E 037°53'0 0.0
2018-Jun-18 04:30N 44°35' E 037°53'0 0.1
2018-Jun-18 04:00N 44°35' E 037°53'0 0.3
2018-Jun-18 03:30N 44°35' E 037°53'0 0.1
2018-Jun-18 03:00N 44°36' E 037°53'0 0.1
2018-Jun-18 02:30N 44°36' E 037°53'0 0.0
2018-Jun-18 02:00N 44°36' E 037°53'0 0.0
2018-Jun-18 01:30N 44°36' E 037°53'0 0.0
2018-Jun-18 01:00N 44°36' E 037°53'0 0.1
2018-Jun-18 00:30N 44°36' E 037°53'0 0.0
2018-Jun-18 00:00N 44°36' E 037°53'0 0.1
2018-Jun-17 23:30N 44°36' E 037°53'0 0.0
2018-Jun-17 23:00N 44°35' E 037°53'0 0.1
2018-Jun-17 22:30N 44°36' E 037°53'0 0.0
2018-Jun-17 22:00N 44°36' E 037°53'0 0.0
2018-Jun-17 21:30N 44°36' E 037°53'0 0.0
2018-Jun-17 21:01N 44°36' E 037°53'0 0.0
2018-Jun-17 20:30N 44°36' E 037°53'0 0.0
2018-Jun-17 20:00N 44°36' E 037°53'0 0.0
2018-Jun-17 19:30N 44°35' E 037°53'0 0.1
2018-Jun-17 19:00N 44°35' E 037°53'0 0.1
2018-Jun-17 18:30N 44°35' E 037°53'0 0.1
2018-Jun-17 18:00N 44°35' E 037°53'0 0.1
2018-Jun-17 17:30N 44°35' E 037°53'0 0.0
2018-Jun-17 17:00N 44°35' E 037°53'0 0.0
2018-Jun-17 16:30N 44°35' E 037°53'0 0.1
2018-Jun-17 16:00N 44°35' E 037°53'0 0.1
2018-Jun-17 15:27N 44°36' E 037°53'0 0.0
2018-Jun-17 15:01N 44°36' E 037°53'0 0.0
2018-Jun-17 14:30N 44°36' E 037°53'0 0.1
2018-Jun-17 14:00N 44°36' E 037°53'0 0.1
2018-Jun-17 13:30N 44°36' E 037°53'0 0.0
2018-Jun-17 13:00N 44°36' E 037°53'0 0.0
2018-Jun-17 12:30N 44°36' E 037°53'0 0.0
2018-Jun-17 12:00N 44°36' E 037°53'0 0.1
2018-Jun-17 11:30N 44°35' E 037°53'0 0.1
2018-Jun-17 11:00N 44°35' E 037°53'0 0.0
2018-Jun-17 10:30N 44°35' E 037°53'0 0.0
2018-Jun-17 10:00N 44°35' E 037°53'0 0.0
2018-Jun-17 09:30N 44°35' E 037°53'0 0.0
2018-Jun-17 09:00N 44°35' E 037°53'0 0.0
2018-Jun-17 08:30N 44°35' E 037°53'0 0.0
2018-Jun-17 08:00N 44°35' E 037°53'0 0.0
2018-Jun-17 07:30N 44°35' E 037°53'0 0.0
2018-Jun-17 07:00N 44°35' E 037°53'0 0.0
2018-Jun-17 06:30N 44°35' E 037°53'0 0.0
2018-Jun-17 06:00N 44°35' E 037°53'0 0.0
2018-Jun-17 05:30N 44°35' E 037°53'0 0.0
2018-Jun-17 05:00N 44°35' E 037°53'0 0.0
2018-Jun-17 04:30N 44°35' E 037°53'0 0.0
2018-Jun-17 04:00N 44°35' E 037°53'0 0.0
2018-Jun-17 03:30N 44°35' E 037°53'0 0.0
2018-Jun-17 03:00N 44°35' E 037°53'0 0.0
2018-Jun-17 02:30N 44°35' E 037°53'0 0.0
2018-Jun-17 02:00N 44°35' E 037°53'0 0.0
2018-Jun-17 01:30N 44°35' E 037°53'0 0.0
2018-Jun-17 01:00N 44°35' E 037°53'0 0.0
2018-Jun-17 00:30N 44°35' E 037°53'0 0.0
2018-Jun-17 00:00N 44°35' E 037°53'0 0.0
2018-Jun-16 23:30N 44°35' E 037°53'0 0.0
2018-Jun-16 23:00N 44°35' E 037°53'0 0.1
2018-Jun-16 22:30N 44°35' E 037°53'0 0.2
2018-Jun-16 22:00N 44°35' E 037°53'0 0.0
2018-Jun-16 21:30N 44°35' E 037°53'0 0.1
2018-Jun-16 21:00N 44°35' E 037°53'0 0.0
2018-Jun-16 20:30N 44°35' E 037°53'0 0.1
2018-Jun-16 20:00N 44°35' E 037°53'0 0.1
2018-Jun-16 19:30N 44°35' E 037°53'0 0.1
2018-Jun-16 19:00N 44°35' E 037°53'0 0.1
2018-Jun-16 18:30N 44°35' E 037°53'0 0.0
2018-Jun-16 18:00N 44°35' E 037°53'0 0.0
2018-Jun-16 17:30N 44°35' E 037°53'0 0.0
2018-Jun-16 17:00N 44°35' E 037°53'0 0.0
2018-Jun-16 16:30N 44°35' E 037°53'0 0.0
2018-Jun-16 16:00N 44°35' E 037°53'0 0.0
2018-Jun-16 15:30N 44°35' E 037°53'0 0.0
2018-Jun-16 15:00N 44°35' E 037°53'0 0.0
2018-Jun-16 14:30N 44°35' E 037°53'0 0.0
2018-Jun-16 13:57N 44°35' E 037°53'0 0.0
2018-Jun-16 13:30N 44°35' E 037°53'0 0.0
2018-Jun-16 13:00N 44°35' E 037°53'0 0.0
2018-Jun-16 12:30N 44°36' E 037°53'0 0.0
2018-Jun-16 12:00N 44°35' E 037°53'0 0.0
2018-Jun-16 11:30N 44°35' E 037°53'0 0.1
2018-Jun-16 11:00N 44°36' E 037°53'0 0.0
2018-Jun-16 10:30N 44°36' E 037°53'0 0.1
2018-Jun-16 10:00N 44°36' E 037°53'0 0.0
2018-Jun-16 09:30N 44°36' E 037°53'0 0.1
2018-Jun-16 09:00N 44°36' E 037°53'0 0.0
2018-Jun-16 08:30N 44°36' E 037°53'0 0.0
2018-Jun-16 08:00N 44°36' E 037°53'0 0.0
2018-Jun-16 07:30N 44°36' E 037°53'0 0.1
2018-Jun-16 07:00N 44°36' E 037°53'0 0.0
2018-Jun-16 06:30N 44°36' E 037°53'0 0.0
2018-Jun-16 06:00N 44°36' E 037°53'0 0.1
2018-Jun-16 05:30N 44°35' E 037°53'0 0.0
2018-Jun-16 05:00N 44°35' E 037°53'0 0.0
2018-Jun-16 04:30N 44°35' E 037°53'0 0.1
2018-Jun-16 04:00N 44°36' E 037°53'0 0.2
2018-Jun-16 03:30N 44°36' E 037°53'0 0.1
2018-Jun-16 03:00N 44°35' E 037°53'0 0.0
2018-Jun-16 02:30N 44°36' E 037°53'0 0.1
2018-Jun-16 02:00N 44°36' E 037°53'0 0.0
2018-Jun-16 01:30N 44°36' E 037°53'0 0.0
2018-Jun-16 01:00N 44°36' E 037°53'0 0.0
2018-Jun-16 00:30N 44°36' E 037°53'0 0.0
2018-Jun-16 00:00N 44°36' E 037°53'0 0.0
2018-Jun-15 23:30N 44°36' E 037°53'0 0.0
2018-Jun-15 23:00N 44°36' E 037°53'0 0.2
2018-Jun-15 22:30N 44°35' E 037°53'0 0.1
2018-Jun-15 22:00N 44°35' E 037°53'0 0.1
2018-Jun-15 21:30N 44°36' E 037°53'0 0.0
2018-Jun-15 21:00N 44°35' E 037°53'0 0.2
2018-Jun-15 20:30N 44°35' E 037°53'2 4.5
2018-Jun-15 20:00N 44°36' E 037°50'510.2
2018-Jun-15 19:30N 44°36' E 037°42'0 0.8
2018-Jun-15 19:00N 44°36' E 037°42'0 0.3
2018-Jun-15 18:30N 44°36' E 037°42'0 0.2
2018-Jun-15 18:00N 44°36' E 037°42'0 0.1
2018-Jun-15 17:30N 44°36' E 037°42'0 0.8
2018-Jun-15 17:00N 44°36' E 037°42'0 0.3
2018-Jun-15 16:30N 44°36' E 037°43'0 0.5
2018-Jun-15 16:00N 44°36' E 037°43'0 1.0
2018-Jun-15 15:30N 44°37' E 037°43'1 1.2
2018-Jun-15 15:00N 44°37' E 037°42'2 4.7
2018-Jun-15 14:30N 44°35' E 037°42'611.4
2018-Jun-15 14:00N 44°29' E 037°42'2 4.2
2018-Jun-15 13:30N 44°27' E 037°42'0 0.3
2018-Jun-15 13:00N 44°27' E 037°42'0 0.4
2018-Jun-15 12:30N 44°27' E 037°42'0 0.6
2018-Jun-15 12:00N 44°27' E 037°41'1 1.2
2018-Jun-15 11:30N 44°28' E 037°41'2 4.3
2018-Jun-15 11:00N 44°27' E 037°38'5 9.8
2018-Jun-15 10:30N 44°25' E 037°32'5 9.7
2018-Jun-15 10:00N 44°22' E 037°25'5 9.7
2018-Jun-15 09:29N 44°20' E 037°19'5 9.6
2018-Jun-15 08:58N 44°18' E 037°13'5 9.7
2018-Jun-15 08:30N 44°16' E 037°07'31 9.6
2018-Jun-15 05:20N 44°02' E 036°29'4 9.1
2018-Jun-15 04:56N 44°01' E 036°25'4 9.1
2018-Jun-15 04:30N 43°59' E 036°20'4 9.0
2018-Jun-15 04:00N 43°57' E 036°14'4 9.0
2018-Jun-15 03:30N 43°55' E 036°09'4 8.9
2018-Jun-15 03:00N 43°53' E 036°04'4 8.9
2018-Jun-15 02:30N 43°51' E 035°58'4 9.0
2018-Jun-15 02:00N 43°49' E 035°53'5 9.1
2018-Jun-15 01:30N 43°47' E 035°47'5 9.2
2018-Jun-15 01:00N 43°44' E 035°41'5 9.4
2018-Jun-15 00:30N 43°42' E 035°35'18 9.7
2018-Jun-14 22:40N 43°34' E 035°14'2 9.7
2018-Jun-14 22:30N 43°33' E 035°12'5 9.7
2018-Jun-14 22:00N 43°31' E 035°05'144 9.6
2018-Jun-14 06:56N 42°26' E 032°10'4 8.3
2018-Jun-14 06:27N 42°24' E 032°05'14 7.9
2018-Jun-14 04:39N 42°17' E 031°48'7 7.7
2018-Jun-14 03:43N 42°14' E 031°39'2 7.3
2018-Jun-14 03:30N 42°14' E 031°37'6 7.5
2018-Jun-14 02:38N 42°10' E 031°30'1 7.6
2018-Jun-14 02:30N 42°10' E 031°28'4 7.8
2018-Jun-14 02:00N 42°08' E 031°24'4 8.4
2018-Jun-14 01:30N 42°06' E 031°19'4 8.5
2018-Jun-14 01:00N 42°04' E 031°14'4 8.7
2018-Jun-14 00:30N 42°02' E 031°08'4 8.8
2018-Jun-14 00:00N 42°00' E 031°03'5 9.0
2018-Jun-13 23:30N 41°58' E 030°58'4 8.9
2018-Jun-13 23:00N 41°56' E 030°52'4 8.8
2018-Jun-13 22:30N 41°54' E 030°47'4 8.8
2018-Jun-13 22:00N 41°52' E 030°42'5 8.7
2018-Jun-13 21:29N 41°50' E 030°36'4 8.9
2018-Jun-13 21:00N 41°48' E 030°31'4 8.9
2018-Jun-13 20:30N 41°46' E 030°26'5 9.1
2018-Jun-13 20:00N 41°44' E 030°21'5 9.3
2018-Jun-13 19:30N 41°42' E 030°15'5 9.2
2018-Jun-13 19:00N 41°40' E 030°09'4 9.1
2018-Jun-13 18:30N 41°38' E 030°04'5 9.0
2018-Jun-13 18:00N 41°36' E 029°59'5 9.0
2018-Jun-13 17:30N 41°34' E 029°53'5 9.1
2018-Jun-13 17:00N 41°31' E 029°48'5 9.0
2018-Jun-13 16:24N 41°29' E 029°42'4 8.9
2018-Jun-13 15:57N 41°28' E 029°37'9 8.8
2018-Jun-13 14:53N 41°23' E 029°26'3 8.6
2018-Jun-13 14:30N 41°22' E 029°22'4 8.6
2018-Jun-13 14:00N 41°20' E 029°17'4 8.8
2018-Jun-13 13:30N 41°17' E 029°13'4 8.5
2018-Jun-13 13:00N 41°14' E 029°08'6 8.5
2018-Jun-13 12:15N 41°08' E 029°04'21 8.0
2018-Jun-13 09:38N 40°50' E 028°51'211.0
2018-Jun-13 09:28N 40°48' E 028°50'2 0.6
2018-Jun-13 05:00N 40°46' E 028°48'0 0.3
2018-Jun-13 04:30N 40°46' E 028°48'0 0.3
2018-Jun-13 04:00N 40°46' E 028°49'0 0.3
2018-Jun-13 03:18N 40°46' E 028°49'0 0.6
2018-Jun-13 02:59N 40°46' E 028°49'2 3.8
2018-Jun-13 02:30N 40°48' E 028°47'4 8.6
2018-Jun-13 02:00N 40°50' E 028°42'5 9.0
2018-Jun-13 01:30N 40°50' E 028°36'5 9.0
2018-Jun-13 01:00N 40°49' E 028°30'4 8.7
2018-Jun-13 00:30N 40°49' E 028°25'4 8.4
2018-Jun-13 00:00N 40°48' E 028°19'4 8.5
2018-Jun-12 23:30N 40°47' E 028°14'4 8.5
2018-Jun-12 23:00N 40°47' E 028°08'4 8.4
2018-Jun-12 22:30N 40°46' E 028°03'4 8.0
2018-Jun-12 22:00N 40°45' E 027°58'4 8.0
2018-Jun-12 21:30N 40°45' E 027°52'4 7.9
2018-Jun-12 20:59N 40°44' E 027°47'4 8.0
2018-Jun-12 20:30N 40°44' E 027°42'89 8.8
2018-Jun-12 10:21N 39°58' E 026°01'510.1
2018-Jun-12 09:53N 39°55' E 025°57'410.0
2018-Jun-12 09:30N 39°51' E 025°55'3 4.4
2018-Jun-12 08:54N 39°49' E 025°55'0 0.0
2018-Jun-12 08:30N 39°49' E 025°55'0 0.0
2018-Jun-12 07:39N 39°49' E 025°55'0 0.0
2018-Jun-12 07:24N 39°49' E 025°55'0 0.0
2018-Jun-12 07:00N 39°49' E 025°55'0 0.0
2018-Jun-12 06:30N 39°49' E 025°55'0 0.0
2018-Jun-12 05:09N 39°49' E 025°55'0 0.0
2018-Jun-12 04:57N 39°49' E 025°55'0 0.0
2018-Jun-12 04:30N 39°49' E 025°55'0 0.0
2018-Jun-12 04:00N 39°49' E 025°55'0 0.0
2018-Jun-11 23:36N 39°49' E 025°55'0 0.4
2018-Jun-11 23:30N 39°49' E 025°55'3 4.8
2018-Jun-11 22:56N 39°47' E 025°52'4 7.1
2018-Jun-11 22:26N 39°45' E 025°49'6 7.8
2018-Jun-11 21:41N 39°41' E 025°43'  
Track history (hours):
 
Tides and Currents Weather Stations Pressure Air Temp Water Temp Dewpoint Dewpoint Depression Visibility Wind Speed Wind Dir Waves Ship Positions

Leyla Kalkavan

Last reported at 2018-Jun-21 21:11 UTC. Time now 2018-Jun-22 00:01 UTC.
Position N 44°28' E 037°22'.

Type: Tanker. MMSI: 538007390.

Date/timePositionNaut miles runAvg speedWind from/ knotsBaromVisibWave heightAir tempDewpointWater temp
2018-Jun-21 21:11N 44°28' E 037°22'312.7
2018-Jun-21 20:58N 44°29' E 037°26'812.9
2018-Jun-21 20:23N 44°31' E 037°36'512.4
2018-Jun-21 20:00N 44°34' E 037°41'3 5.1
2018-Jun-21 19:30N 44°36' E 037°43'0 0.2
2018-Jun-21 19:00N 44°36' E 037°43'0 0.2
2018-Jun-21 18:30N 44°36' E 037°43'0 0.4
2018-Jun-21 18:00N 44°36' E 037°43'1 1.5
2018-Jun-21 17:30N 44°35' E 037°43'0 0.4
2018-Jun-21 17:00N 44°35' E 037°43'1 1.9
2018-Jun-21 16:30N 44°35' E 037°41'2 4.1
2018-Jun-21 16:00N 44°36' E 037°39'1 2.7
2018-Jun-21 15:30N 44°37' E 037°38'1 1.5
2018-Jun-21 15:00N 44°38' E 037°38'0 0.0
2018-Jun-20 22:13N 44°38' E 037°38'0 0.4
2018-Jun-20 22:00N 44°38' E 037°38'1 2.3
2018-Jun-20 21:30N 44°37' E 037°37'1 2.1
2018-Jun-20 21:00N 44°36' E 037°38'1 2.0
2018-Jun-20 20:30N 44°35' E 037°39'4 9.1
2018-Jun-20 20:00N 44°35' E 037°45'5 9.5
2018-Jun-20 19:30N 44°35' E 037°52'1 1.3
2018-Jun-20 18:58N 44°35' E 037°53'0 0.1
2018-Jun-20 18:28N 44°35' E 037°53'0 0.2
2018-Jun-20 17:58N 44°35' E 037°53'0 0.0
2018-Jun-20 17:28N 44°35' E 037°53'0 0.0
2018-Jun-20 16:58N 44°35' E 037°53'0 0.0
2018-Jun-20 16:25N 44°35' E 037°53'0 0.0
2018-Jun-20 15:58N 44°35' E 037°53'0 0.0
2018-Jun-20 15:28N 44°35' E 037°53'0 0.0
2018-Jun-20 14:58N 44°35' E 037°53'0 0.2
2018-Jun-20 14:28N 44°36' E 037°53'0 0.2
2018-Jun-20 13:58N 44°35' E 037°53'0 0.1
2018-Jun-20 13:28N 44°35' E 037°53'0 0.1
2018-Jun-20 12:58N 44°35' E 037°53'0 0.0
2018-Jun-20 12:28N 44°35' E 037°53'0 0.0
2018-Jun-20 11:58N 44°35' E 037°53'0 0.0
2018-Jun-20 11:25N 44°35' E 037°53'0 0.0
2018-Jun-20 10:58N 44°35' E 037°53'0 0.0
2018-Jun-20 10:28N 44°35' E 037°53'0 0.1
2018-Jun-20 09:58N 44°36' E 037°53'0 0.1
2018-Jun-20 09:25N 44°36' E 037°53'0 0.0
2018-Jun-20 08:58N 44°36' E 037°53'0 0.0
2018-Jun-20 08:28N 44°36' E 037°53'0 0.0
2018-Jun-20 07:58N 44°36' E 037°53'0 0.0
2018-Jun-20 07:28N 44°36' E 037°53'0 0.0
2018-Jun-20 06:58N 44°36' E 037°53'0 0.1
2018-Jun-20 06:28N 44°36' E 037°53'0 0.0
2018-Jun-20 05:58N 44°35' E 037°53'0 0.0
2018-Jun-20 05:28N 44°35' E 037°53'0 0.0
2018-Jun-20 04:49N 44°35' E 037°53'0 0.1
2018-Jun-20 04:28N 44°35' E 037°53'0 0.0
2018-Jun-20 03:58N 44°35' E 037°53'0 0.0
2018-Jun-20 03:28N 44°35' E 037°53'0 0.0
2018-Jun-20 02:58N 44°35' E 037°53'0 0.0
2018-Jun-20 02:28N 44°35' E 037°53'0 0.2
2018-Jun-20 01:58N 44°35' E 037°53'0 0.1
2018-Jun-20 01:28N 44°35' E 037°53'0 0.0
2018-Jun-20 00:58N 44°35' E 037°53'0 0.0
2018-Jun-20 00:28N 44°35' E 037°53'0 0.1
2018-Jun-19 23:58N 44°35' E 037°53'0 0.1
2018-Jun-19 23:28N 44°35' E 037°53'0 0.0
2018-Jun-19 22:58N 44°35' E 037°53'0 0.0
2018-Jun-19 22:28N 44°35' E 037°53'0 0.0
2018-Jun-19 21:58N 44°35' E 037°53'0 0.0
2018-Jun-19 21:28N 44°35' E 037°53'0 0.1
2018-Jun-19 20:58N 44°35' E 037°53'0 0.1
2018-Jun-19 20:28N 44°35' E 037°53'0 0.0
2018-Jun-19 19:58N 44°35' E 037°53'0 0.1
2018-Jun-19 19:28N 44°35' E 037°53'0 0.1
2018-Jun-19 18:58N 44°35' E 037°53'0 0.0
2018-Jun-19 18:28N 44°35' E 037°53'0 0.0
2018-Jun-19 17:58N 44°35' E 037°53'0 0.1
2018-Jun-19 17:28N 44°35' E 037°53'0 0.0
2018-Jun-19 16:55N 44°35' E 037°53'0 0.1
2018-Jun-19 16:25N 44°35' E 037°53'0 0.0
2018-Jun-19 15:58N 44°35' E 037°53'0 0.1
2018-Jun-19 15:28N 44°35' E 037°53'0 0.1
2018-Jun-19 14:58N 44°35' E 037°53'0 0.1
2018-Jun-19 14:28N 44°35' E 037°53'0 0.1
2018-Jun-19 13:58N 44°36' E 037°53'0 0.0
2018-Jun-19 13:28N 44°36' E 037°53'0 0.0
2018-Jun-19 12:58N 44°36' E 037°53'0 0.0
2018-Jun-19 12:28N 44°36' E 037°53'0 0.0
2018-Jun-19 11:58N 44°36' E 037°53'0 0.0
2018-Jun-19 11:28N 44°36' E 037°53'0 0.0
2018-Jun-19 10:58N 44°36' E 037°53'0 0.0
2018-Jun-19 10:28N 44°36' E 037°53'0 0.0
2018-Jun-19 09:58N 44°36' E 037°53'0 0.0
2018-Jun-19 09:28N 44°36' E 037°53'0 0.0
2018-Jun-19 08:58N 44°36' E 037°53'0 0.0
2018-Jun-19 08:28N 44°36' E 037°53'0 0.0
2018-Jun-19 07:58N 44°36' E 037°53'0 0.1
2018-Jun-19 07:28N 44°36' E 037°53'0 0.1
2018-Jun-19 06:58N 44°35' E 037°53'0 0.1
2018-Jun-19 06:28N 44°35' E 037°53'0 0.0
2018-Jun-19 05:58N 44°35' E 037°53'0 0.0
2018-Jun-19 05:31N 44°35' E 037°53'0 0.1
2018-Jun-19 04:58N 44°35' E 037°53'0 0.1
2018-Jun-19 04:28N 44°35' E 037°53'0 0.0
2018-Jun-19 03:58N 44°35' E 037°53'0 0.0
2018-Jun-19 03:28N 44°35' E 037°53'0 0.0
2018-Jun-19 02:58N 44°35' E 037°53'0 0.0
2018-Jun-19 02:28N 44°35' E 037°53'0 0.0
2018-Jun-19 02:01N 44°35' E 037°53'0 0.0
2018-Jun-19 01:28N 44°35' E 037°53'0 0.0
2018-Jun-19 00:57N 44°35' E 037°53'0 0.1
2018-Jun-19 00:28N 44°35' E 037°53'0 0.0
2018-Jun-18 23:58N 44°35' E 037°53'0 0.1
2018-Jun-18 23:31N 44°35' E 037°53'0 0.0
2018-Jun-18 23:01N 44°35' E 037°53'0 0.1
2018-Jun-18 22:28N 44°35' E 037°53'0 0.1
2018-Jun-18 21:58N 44°35' E 037°53'0 0.0
2018-Jun-18 21:28N 44°35' E 037°53'0 0.0
2018-Jun-18 20:58N 44°35' E 037°53'0 0.0
2018-Jun-18 20:27N 44°35' E 037°53'0 0.1
2018-Jun-18 20:01N 44°35' E 037°53'0 0.0
2018-Jun-18 19:31N 44°35' E 037°53'0 0.0
2018-Jun-18 18:58N 44°35' E 037°53'0 0.0
2018-Jun-18 18:30N 44°35' E 037°53'0 0.1
2018-Jun-18 18:01N 44°35' E 037°53'0 0.0
2018-Jun-18 17:30N 44°35' E 037°53'0 0.0
2018-Jun-18 17:01N 44°35' E 037°53'0 0.0
2018-Jun-18 16:31N 44°35' E 037°53'0 0.0
2018-Jun-18 15:58N 44°35' E 037°53'0 0.0
2018-Jun-18 15:30N 44°35' E 037°53'0 0.0
2018-Jun-18 14:58N 44°35' E 037°53'0 0.0
2018-Jun-18 14:30N 44°35' E 037°53'0 0.0
2018-Jun-18 14:01N 44°35' E 037°53'0 0.1
2018-Jun-18 13:27N 44°35' E 037°53'0 0.0
2018-Jun-18 13:01N 44°35' E 037°53'0 0.2
2018-Jun-18 12:31N 44°35' E 037°53'0 0.3
2018-Jun-18 12:01N 44°35' E 037°53'0 0.2
2018-Jun-18 11:25N 44°35' E 037°53'0 0.0
2018-Jun-18 10:57N 44°35' E 037°53'0 0.0
2018-Jun-18 10:31N 44°35' E 037°53'0 0.0
2018-Jun-18 09:57N 44°35' E 037°53'0 0.0
2018-Jun-18 09:28N 44°35' E 037°53'0 0.0
2018-Jun-18 09:01N 44°35' E 037°53'0 0.0
2018-Jun-18 08:30N 44°35' E 037°53'0 0.1
2018-Jun-18 08:00N 44°35' E 037°53'0 0.2
2018-Jun-18 07:30N 44°36' E 037°53'0 0.1
2018-Jun-18 07:00N 44°36' E 037°53'0 0.1
2018-Jun-18 06:30N 44°35' E 037°53'0 0.1
2018-Jun-18 06:01N 44°35' E 037°53'0 0.1
2018-Jun-18 05:30N 44°35' E 037°53'0 0.0
2018-Jun-18 05:00N 44°35' E 037°53'0 0.0
2018-Jun-18 04:30N 44°35' E 037°53'0 0.1
2018-Jun-18 04:00N 44°35' E 037°53'0 0.3
2018-Jun-18 03:30N 44°35' E 037°53'0 0.1
2018-Jun-18 03:00N 44°36' E 037°53'0 0.1
2018-Jun-18 02:30N 44°36' E 037°53'0 0.0
2018-Jun-18 02:00N 44°36' E 037°53'0 0.0
2018-Jun-18 01:30N 44°36' E 037°53'0 0.0
2018-Jun-18 01:00N 44°36' E 037°53'0 0.1
2018-Jun-18 00:30N 44°36' E 037°53'0 0.0
2018-Jun-18 00:00N 44°36' E 037°53'0 0.1
2018-Jun-17 23:30N 44°36' E 037°53'0 0.0
2018-Jun-17 23:00N 44°35' E 037°53'0 0.1
2018-Jun-17 22:30N 44°36' E 037°53'0 0.0
2018-Jun-17 22:00N 44°36' E 037°53'0 0.0
2018-Jun-17 21:30N 44°36' E 037°53'0 0.0
2018-Jun-17 21:01N 44°36' E 037°53'0 0.0
2018-Jun-17 20:30N 44°36' E 037°53'0 0.0
2018-Jun-17 20:00N 44°36' E 037°53'0 0.0
2018-Jun-17 19:30N 44°35' E 037°53'0 0.1
2018-Jun-17 19:00N 44°35' E 037°53'0 0.1
2018-Jun-17 18:30N 44°35' E 037°53'0 0.1
2018-Jun-17 18:00N 44°35' E 037°53'0 0.1
2018-Jun-17 17:30N 44°35' E 037°53'0 0.0
2018-Jun-17 17:00N 44°35' E 037°53'0 0.0
2018-Jun-17 16:30N 44°35' E 037°53'0 0.1
2018-Jun-17 16:00N 44°35' E 037°53'0 0.1
2018-Jun-17 15:27N 44°36' E 037°53'0 0.0
2018-Jun-17 15:01N 44°36' E 037°53'0 0.0
2018-Jun-17 14:30N 44°36' E 037°53'0 0.1
2018-Jun-17 14:00N 44°36' E 037°53'0 0.1
2018-Jun-17 13:30N 44°36' E 037°53'0 0.0
2018-Jun-17 13:00N 44°36' E 037°53'0 0.0
2018-Jun-17 12:30N 44°36' E 037°53'0 0.0
2018-Jun-17 12:00N 44°36' E 037°53'0 0.1
2018-Jun-17 11:30N 44°35' E 037°53'0 0.1
2018-Jun-17 11:00N 44°35' E 037°53'0 0.0
2018-Jun-17 10:30N 44°35' E 037°53'0 0.0
2018-Jun-17 10:00N 44°35' E 037°53'0 0.0
2018-Jun-17 09:30N 44°35' E 037°53'0 0.0
2018-Jun-17 09:00N 44°35' E 037°53'0 0.0
2018-Jun-17 08:30N 44°35' E 037°53'0 0.0
2018-Jun-17 08:00N 44°35' E 037°53'0 0.0
2018-Jun-17 07:30N 44°35' E 037°53'0 0.0
2018-Jun-17 07:00N 44°35' E 037°53'0 0.0
2018-Jun-17 06:30N 44°35' E 037°53'0 0.0
2018-Jun-17 06:00N 44°35' E 037°53'0 0.0
2018-Jun-17 05:30N 44°35' E 037°53'0 0.0
2018-Jun-17 05:00N 44°35' E 037°53'0 0.0
2018-Jun-17 04:30N 44°35' E 037°53'0 0.0
2018-Jun-17 04:00N 44°35' E 037°53'0 0.0
2018-Jun-17 03:30N 44°35' E 037°53'0 0.0
2018-Jun-17 03:00N 44°35' E 037°53'0 0.0
2018-Jun-17 02:30N 44°35' E 037°53'0 0.0
2018-Jun-17 02:00N 44°35' E 037°53'0 0.0
2018-Jun-17 01:30N 44°35' E 037°53'0 0.0
2018-Jun-17 01:00N 44°35' E 037°53'0 0.0
2018-Jun-17 00:30N 44°35' E 037°53'0 0.0
2018-Jun-17 00:00N 44°35' E 037°53'0 0.0
2018-Jun-16 23:30N 44°35' E 037°53'0 0.0
2018-Jun-16 23:00N 44°35' E 037°53'0 0.1
2018-Jun-16 22:30N 44°35' E 037°53'0 0.2
2018-Jun-16 22:00N 44°35' E 037°53'0 0.0
2018-Jun-16 21:30N 44°35' E 037°53'0 0.1
2018-Jun-16 21:00N 44°35' E 037°53'0 0.0
2018-Jun-16 20:30N 44°35' E 037°53'0 0.1
2018-Jun-16 20:00N 44°35' E 037°53'0 0.1
2018-Jun-16 19:30N 44°35' E 037°53'0 0.1
2018-Jun-16 19:00N 44°35' E 037°53'0 0.1
2018-Jun-16 18:30N 44°35' E 037°53'0 0.0
2018-Jun-16 18:00N 44°35' E 037°53'0 0.0
2018-Jun-16 17:30N 44°35' E 037°53'0 0.0
2018-Jun-16 17:00N 44°35' E 037°53'0 0.0
2018-Jun-16 16:30N 44°35' E 037°53'0 0.0
2018-Jun-16 16:00N 44°35' E 037°53'0 0.0
2018-Jun-16 15:30N 44°35' E 037°53'0 0.0
2018-Jun-16 15:00N 44°35' E 037°53'0 0.0
2018-Jun-16 14:30N 44°35' E 037°53'0 0.0
2018-Jun-16 13:57N 44°35' E 037°53'0 0.0
2018-Jun-16 13:30N 44°35' E 037°53'0 0.0
2018-Jun-16 13:00N 44°35' E 037°53'0 0.0
2018-Jun-16 12:30N 44°36' E 037°53'0 0.0
2018-Jun-16 12:00N 44°35' E 037°53'0 0.0
2018-Jun-16 11:30N 44°35' E 037°53'0 0.1
2018-Jun-16 11:00N 44°36' E 037°53'0 0.0
2018-Jun-16 10:30N 44°36' E 037°53'0 0.1
2018-Jun-16 10:00N 44°36' E 037°53'0 0.0
2018-Jun-16 09:30N 44°36' E 037°53'0 0.1
2018-Jun-16 09:00N 44°36' E 037°53'0 0.0
2018-Jun-16 08:30N 44°36' E 037°53'0 0.0
2018-Jun-16 08:00N 44°36' E 037°53'0 0.0
2018-Jun-16 07:30N 44°36' E 037°53'0 0.1
2018-Jun-16 07:00N 44°36' E 037°53'0 0.0
2018-Jun-16 06:30N 44°36' E 037°53'0 0.0
2018-Jun-16 06:00N 44°36' E 037°53'0 0.1
2018-Jun-16 05:30N 44°35' E 037°53'0 0.0
2018-Jun-16 05:00N 44°35' E 037°53'0 0.0
2018-Jun-16 04:30N 44°35' E 037°53'0 0.1
2018-Jun-16 04:00N 44°36' E 037°53'0 0.2
2018-Jun-16 03:30N 44°36' E 037°53'0 0.1
2018-Jun-16 03:00N 44°35' E 037°53'0 0.0
2018-Jun-16 02:30N 44°36' E 037°53'0 0.1
2018-Jun-16 02:00N 44°36' E 037°53'0 0.0
2018-Jun-16 01:30N 44°36' E 037°53'0 0.0
2018-Jun-16 01:00N 44°36' E 037°53'0 0.0
2018-Jun-16 00:30N 44°36' E 037°53'0 0.0
2018-Jun-16 00:00N 44°36' E 037°53'0 0.0
2018-Jun-15 23:30N 44°36' E 037°53'0 0.0
2018-Jun-15 23:00N 44°36' E 037°53'0 0.2
2018-Jun-15 22:30N 44°35' E 037°53'0 0.1
2018-Jun-15 22:00N 44°35' E 037°53'0 0.1
2018-Jun-15 21:30N 44°36' E 037°53'0 0.0
2018-Jun-15 21:00N 44°35' E 037°53'0 0.2
2018-Jun-15 20:30N 44°35' E 037°53'2 4.5
2018-Jun-15 20:00N 44°36' E 037°50'510.2
2018-Jun-15 19:30N 44°36' E 037°42'0 0.8
2018-Jun-15 19:00N 44°36' E 037°42'0 0.3
2018-Jun-15 18:30N 44°36' E 037°42'0 0.2
2018-Jun-15 18:00N 44°36' E 037°42'0 0.1
2018-Jun-15 17:30N 44°36' E 037°42'0 0.8
2018-Jun-15 17:00N 44°36' E 037°42'0 0.3
2018-Jun-15 16:30N 44°36' E 037°43'0 0.5
2018-Jun-15 16:00N 44°36' E 037°43'0 1.0
2018-Jun-15 15:30N 44°37' E 037°43'1 1.2
2018-Jun-15 15:00N 44°37' E 037°42'2 4.7
2018-Jun-15 14:30N 44°35' E 037°42'611.4
2018-Jun-15 14:00N 44°29' E 037°42'2 4.2
2018-Jun-15 13:30N 44°27' E 037°42'0 0.3
2018-Jun-15 13:00N 44°27' E 037°42'0 0.4
2018-Jun-15 12:30N 44°27' E 037°42'0 0.6
2018-Jun-15 12:00N 44°27' E 037°41'1 1.2
2018-Jun-15 11:30N 44°28' E 037°41'2 4.3
2018-Jun-15 11:00N 44°27' E 037°38'5 9.8
2018-Jun-15 10:30N 44°25' E 037°32'5 9.7
2018-Jun-15 10:00N 44°22' E 037°25'5 9.7
2018-Jun-15 09:29N 44°20' E 037°19'5 9.6
2018-Jun-15 08:58N 44°18' E 037°13'5 9.7
2018-Jun-15 08:30N 44°16' E 037°07'31 9.6
2018-Jun-15 05:20N 44°02' E 036°29'4 9.1
2018-Jun-15 04:56N 44°01' E 036°25'4 9.1
2018-Jun-15 04:30N 43°59' E 036°20'4 9.0
2018-Jun-15 04:00N 43°57' E 036°14'4 9.0
2018-Jun-15 03:30N 43°55' E 036°09'4 8.9
2018-Jun-15 03:00N 43°53' E 036°04'4 8.9
2018-Jun-15 02:30N 43°51' E 035°58'4 9.0
2018-Jun-15 02:00N 43°49' E 035°53'5 9.1
2018-Jun-15 01:30N 43°47' E 035°47'5 9.2
2018-Jun-15 01:00N 43°44' E 035°41'5 9.4
2018-Jun-15 00:30N 43°42' E 035°35'18 9.7
2018-Jun-14 22:40N 43°34' E 035°14'2 9.7
2018-Jun-14 22:30N 43°33' E 035°12'5 9.7
2018-Jun-14 22:00N 43°31' E 035°05'144 9.6
2018-Jun-14 06:56N 42°26' E 032°10'4 8.3
2018-Jun-14 06:27N 42°24' E 032°05'14 7.9
2018-Jun-14 04:39N 42°17' E 031°48'7 7.7
2018-Jun-14 03:43N 42°14' E 031°39'2 7.3
2018-Jun-14 03:30N 42°14' E 031°37'6 7.5
2018-Jun-14 02:38N 42°10' E 031°30'1 7.6
2018-Jun-14 02:30N 42°10' E 031°28'4 7.8
2018-Jun-14 02:00N 42°08' E 031°24'4 8.4
2018-Jun-14 01:30N 42°06' E 031°19'4 8.5
2018-Jun-14 01:00N 42°04' E 031°14'4 8.7
2018-Jun-14 00:30N 42°02' E 031°08'4 8.8
2018-Jun-14 00:00N 42°00' E 031°03'5 9.0
2018-Jun-13 23:30N 41°58' E 030°58'4 8.9
2018-Jun-13 23:00N 41°56' E 030°52'4 8.8
2018-Jun-13 22:30N 41°54' E 030°47'4 8.8
2018-Jun-13 22:00N 41°52' E 030°42'5 8.7
2018-Jun-13 21:29N 41°50' E 030°36'4 8.9
2018-Jun-13 21:00N 41°48' E 030°31'4 8.9
2018-Jun-13 20:30N 41°46' E 030°26'5 9.1
2018-Jun-13 20:00N 41°44' E 030°21'5 9.3
2018-Jun-13 19:30N 41°42' E 030°15'5 9.2
2018-Jun-13 19:00N 41°40' E 030°09'4 9.1
2018-Jun-13 18:30N 41°38' E 030°04'5 9.0
2018-Jun-13 18:00N 41°36' E 029°59'5 9.0
2018-Jun-13 17:30N 41°34' E 029°53'5 9.1
2018-Jun-13 17:00N 41°31' E 029°48'5 9.0
2018-Jun-13 16:24N 41°29' E 029°42'4 8.9
2018-Jun-13 15:57N 41°28' E 029°37'9 8.8
2018-Jun-13 14:53N 41°23' E 029°26'3 8.6
2018-Jun-13 14:30N 41°22' E 029°22'4 8.6
2018-Jun-13 14:00N 41°20' E 029°17'4 8.8
2018-Jun-13 13:30N 41°17' E 029°13'4 8.5
2018-Jun-13 13:00N 41°14' E 029°08'6 8.5
2018-Jun-13 12:15N 41°08' E 029°04'21 8.0
2018-Jun-13 09:38N 40°50' E 028°51'211.0
2018-Jun-13 09:28N 40°48' E 028°50'2 0.6
2018-Jun-13 05:00N 40°46' E 028°48'0 0.3
2018-Jun-13 04:30N 40°46' E 028°48'0 0.3
2018-Jun-13 04:00N 40°46' E 028°49'0 0.3
2018-Jun-13 03:18N 40°46' E 028°49'0 0.6
2018-Jun-13 02:59N 40°46' E 028°49'2 3.8
2018-Jun-13 02:30N 40°48' E 028°47'4 8.6
2018-Jun-13 02:00N 40°50' E 028°42'5 9.0
2018-Jun-13 01:30N 40°50' E 028°36'5 9.0
2018-Jun-13 01:00N 40°49' E 028°30'4 8.7
2018-Jun-13 00:30N 40°49' E 028°25'4 8.4
2018-Jun-13 00:00N 40°48' E 028°19'4 8.5
2018-Jun-12 23:30N 40°47' E 028°14'4 8.5
2018-Jun-12 23:00N 40°47' E 028°08'4 8.4
2018-Jun-12 22:30N 40°46' E 028°03'4 8.0
2018-Jun-12 22:00N 40°45' E 027°58'4 8.0
2018-Jun-12 21:30N 40°45' E 027°52'4 7.9
2018-Jun-12 20:59N 40°44' E 027°47'4 8.0
2018-Jun-12 20:30N 40°44' E 027°42'89 8.8
2018-Jun-12 10:21N 39°58' E 026°01'510.1
2018-Jun-12 09:53N 39°55' E 025°57'410.0
2018-Jun-12 09:30N 39°51' E 025°55'3 4.4
2018-Jun-12 08:54N 39°49' E 025°55'0 0.0
2018-Jun-12 08:30N 39°49' E 025°55'0 0.0
2018-Jun-12 07:39N 39°49' E 025°55'0 0.0
2018-Jun-12 07:24N 39°49' E 025°55'0 0.0
2018-Jun-12 07:00N 39°49' E 025°55'0 0.0
2018-Jun-12 06:30N 39°49' E 025°55'0 0.0
2018-Jun-12 05:09N 39°49' E 025°55'0 0.0
2018-Jun-12 04:57N 39°49' E 025°55'0 0.0
2018-Jun-12 04:30N 39°49' E 025°55'0 0.0
2018-Jun-12 04:00N 39°49' E 025°55'0 0.0
2018-Jun-11 23:36N 39°49' E 025°55'0 0.4
2018-Jun-11 23:30N 39°49' E 025°55'3 4.8
2018-Jun-11 22:56N 39°47' E 025°52'4 7.1
2018-Jun-11 22:26N 39°45' E 025°49'6 7.8
2018-Jun-11 21:41N 39°41' E 025°43'  

Dump ship's entire track history